Time;durP1;ratioP1;P1;durP2;ratioP2;P2;SDS_P1;SDS_P2;PMS_P1;PMS_P2;Temp;Humidity;BMP_temperature;BMP_pressure;BME280_temperature;BME280_humidity;BME280_pressure;Samples;Min_cycle;Max_cycle;Signal;HPM_P1;HPM_P2
2021/04/09 00:01:14;;;;;;;15.07;8.13;;;;;;;;;;3586183;40;20045;-49
2021/04/09 00:03:42;;;;;;;19.38;8.00;;;;;;;;;;3586659;40;20445;-50
2021/04/09 00:06:08;;;;;;;14.18;7.68;;;;;;;;;;3585851;40;20061;-50
2021/04/09 00:08:33;;;;;;;14.85;6.88;;;;;;;;;;3586601;40;20441;-54
2021/04/09 00:10:59;;;;;;;14.57;6.65;;;;;;;;;;3586622;40;20037;-52
2021/04/09 00:13:24;;;;;;;12.80;5.68;;;;;;;;;;3586858;40;20025;-52
2021/04/09 00:15:50;;;;;;;11.23;5.70;;;;;;;;;;3586044;40;20284;-52
2021/04/09 00:18:15;;;;;;;11.95;6.82;;;;;;;;;;3586454;40;20032;-54
2021/04/09 00:20:40;;;;;;;12.75;6.45;;;;;;;;;;3586561;40;20114;-50
2021/04/09 00:23:06;;;;;;;13.43;6.53;;;;;;;;;;3585968;40;20537;-53
2021/04/09 00:25:31;;;;;;;26.77;6.82;;;;;;;;;;3586093;40;20040;-50
2021/04/09 00:27:57;;;;;;;9.68;6.18;;;;;;;;;;3586531;40;20028;-48
2021/04/09 00:30:28;;;;;;;10.45;5.47;;;;;;;;;;3586592;40;20036;-47
2021/04/09 00:32:53;;;;;;;7.95;4.13;;;;;;;;;;3585270;40;20036;-48
2021/04/09 00:35:19;;;;;;;11.05;5.18;;;;;;;;;;3586020;40;20032;-53
2021/04/09 00:37:44;;;;;;;11.38;5.80;;;;;;;;;;3585356;40;20037;-51
2021/04/09 00:40:11;;;;;;;13.27;6.60;;;;;;;;;;3586338;40;20036;-50
2021/04/09 00:42:38;;;;;;;12.93;5.93;;;;;;;;;;3586271;40;20032;-51
2021/04/09 00:45:05;;;;;;;13.35;5.82;;;;;;;;;;3586304;40;20060;-50
2021/04/09 00:47:30;;;;;;;10.27;4.93;;;;;;;;;;3586348;40;20076;-52
2021/04/09 00:49:56;;;;;;;9.98;5.55;;;;;;;;;;3585871;40;20053;-52
2021/04/09 00:52:22;;;;;;;12.93;5.75;;;;;;;;;;3586245;40;20036;-47
2021/04/09 00:54:49;;;;;;;8.75;6.32;;;;;;;;;;3586266;40;20067;-52
2021/04/09 00:57:16;;;;;;;12.65;5.72;;;;;;;;;;3586169;40;20039;-52
2021/04/09 00:59:42;;;;;;;12.13;6.38;;;;;;;;;;3585733;40;20352;-52
2021/04/09 01:02:07;;;;;;;17.45;6.60;;;;;;;;;;3586018;40;20033;-51
2021/04/09 01:04:33;;;;;;;10.73;6.78;;;;;;;;;;3586206;40;20037;-53
2021/04/09 01:06:59;;;;;;;12.73;6.30;;;;;;;;;;3585635;40;20036;-47
2021/04/09 01:09:24;;;;;;;12.02;6.78;;;;;;;;;;3585972;40;20039;-52
2021/04/09 01:11:49;;;;;;;10.18;6.05;;;;;;;;;;3586179;40;20044;-49
2021/04/09 01:14:15;;;;;;;16.83;6.65;;;;;;;;;;3585250;40;20041;-49
2021/04/09 01:16:46;;;;;;;12.23;7.18;;;;;;;;;;3585413;40;20059;-52
2021/04/09 01:19:50;;;;;;;12.85;7.00;;;;;;;;;;3586008;40;20358;-49
2021/04/09 01:22:16;;;;;;;8.50;5.82;;;;;;;;;;3585829;40;20069;-49
2021/04/09 01:25:01;;;;;;;12.10;6.20;;;;;;;;;;3585582;40;20070;-51
2021/04/09 01:27:29;;;;;;;8.40;5.60;;;;;;;;;;3585556;40;20048;-52
2021/04/09 01:30:20;;;;;;;7.70;5.97;;;;;;;;;;3586301;40;20358;-52
2021/04/09 01:32:47;;;;;;;;;;;;;;;;;;3585688;40;20025;-52
2021/04/09 01:35:15;;;;;;;12.35;6.38;;;;;;;;;;3585661;40;19932;-52
2021/04/09 01:37:45;;;;;;;9.45;5.93;;;;;;;;;;3585599;40;20133;-50
2021/04/09 01:40:14;;;;;;;11.00;6.38;;;;;;;;;;3586006;40;20047;-51
2021/04/09 01:42:42;;;;;;;10.25;6.72;;;;;;;;;;3585048;40;20044;-52
2021/04/09 01:45:12;;;;;;;11.90;7.38;;;;;;;;;;3585926;40;20122;-49
2021/04/09 01:47:38;;;;;;;11.27;6.95;;;;;;;;;;3586540;40;20061;-49
2021/04/09 01:50:10;;;;;;;24.63;6.68;;;;;;;;;;3587576;40;20162;-52
2021/04/09 01:52:36;;;;;;;13.77;7.38;;;;;;;;;;3587038;40;20334;-49
2021/04/09 01:55:05;;;;;;;10.25;7.00;;;;;;;;;;3587468;40;20028;-47
2021/04/09 01:57:31;;;;;;;10.27;6.85;;;;;;;;;;3587413;40;20294;-54
2021/04/09 01:59:59;;;;;;;16.65;7.15;;;;;;;;;;3587618;40;20080;-50
2021/04/09 02:02:25;;;;;;;9.85;6.25;;;;;;;;;;3586934;40;20064;-52
2021/04/09 02:04:51;;;;;;;15.15;7.90;;;;;;;;;;3587417;40;20090;-52
2021/04/09 02:07:18;;;;;;;10.18;6.88;;;;;;;;;;3587228;40;20029;-54
2021/04/09 02:09:46;;;;;;;9.98;6.82;;;;;;;;;;3586955;40;20101;-52
2021/04/09 02:12:13;;;;;;;10.55;7.13;;;;;;;;;;3587307;40;20032;-54
2021/04/09 02:14:41;;;;;;;11.85;6.45;;;;;;;;;;3587141;40;20036;-49
2021/04/09 02:17:11;;;;;;;10.18;7.28;;;;;;;;;;3586961;40;20056;-52
2021/04/09 02:19:39;;;;;;;14.88;7.35;;;;;;;;;;3586793;40;20028;-51
2021/04/09 02:22:05;;;;;;;17.20;7.43;;;;;;;;;;3587258;40;20036;-49
2021/04/09 02:24:30;;;;;;;11.10;6.70;;;;;;;;;;3587143;40;20472;-52
2021/04/09 02:26:56;;;;;;;10.07;7.07;;;;;;;;;;3586530;40;20039;-52
2021/04/09 02:29:22;;;;;;;12.07;6.85;;;;;;;;;;3587191;40;20042;-49
2021/04/09 02:31:49;;;;;;;12.90;7.70;;;;;;;;;;3587010;40;20037;-53
2021/04/09 02:34:15;;;;;;;11.45;7.22;;;;;;;;;;3586734;40;20147;-52
2021/04/09 02:36:42;;;;;;;11.90;7.45;;;;;;;;;;3587056;40;20051;-51
2021/04/09 02:39:12;;;;;;;10.75;6.68;;;;;;;;;;3587565;40;20049;-50
2021/04/09 02:41:44;;;;;;;11.70;7.53;;;;;;;;;;3586225;40;20037;-51
2021/04/09 02:44:11;;;;;;;12.57;7.32;;;;;;;;;;3586856;40;20269;-52
2021/04/09 02:46:56;;;;;;;11.90;6.15;;;;;;;;;;3586780;40;20517;-52
2021/04/09 02:49:29;;;;;;;12.95;7.32;;;;;;;;;;3586573;40;20494;-53
2021/04/09 02:51:57;;;;;;;9.73;6.63;;;;;;;;;;3584297;40;20037;-49
2021/04/09 02:54:23;;;;;;;10.50;6.72;;;;;;;;;;3586579;40;20265;-50
2021/04/09 02:56:49;;;;;;;14.90;6.55;;;;;;;;;;3587360;40;20363;-49
2021/04/09 02:59:16;;;;;;;14.85;6.78;;;;;;;;;;3585408;40;20110;-52
2021/04/09 03:01:46;;;;;;;13.88;7.15;;;;;;;;;;3586943;40;20039;-50
2021/04/09 03:04:12;;;;;;;16.00;7.72;;;;;;;;;;3586956;40;20356;-48
2021/04/09 03:06:42;;;;;;;14.52;7.28;;;;;;;;;;3586420;40;20122;-50
2021/04/09 03:09:08;;;;;;;18.13;6.40;;;;;;;;;;3586891;40;20068;-51
2021/04/09 03:11:34;;;;;;;14.30;6.65;;;;;;;;;;3586012;40;20038;-54
2021/04/09 03:14:01;;;;;;;9.63;6.35;;;;;;;;;;3587329;40;20032;-53
2021/04/09 03:16:30;;;;;;;9.35;6.20;;;;;;;;;;3585970;40;20052;-54
2021/04/09 03:18:56;;;;;;;10.35;6.80;;;;;;;;;;3587084;40;20044;-49
2021/04/09 03:21:21;;;;;;;10.18;6.60;;;;;;;;;;3586810;40;20044;-53
2021/04/09 03:23:46;;;;;;;11.88;6.97;;;;;;;;;;3586891;40;20375;-53
2021/04/09 03:26:12;;;;;;;10.98;6.68;;;;;;;;;;3586260;40;20029;-54
2021/04/09 03:28:37;;;;;;;11.02;6.60;;;;;;;;;;3586073;40;20752;-51
2021/04/09 03:31:03;;;;;;;10.02;6.68;;;;;;;;;;3586801;40;20047;-54
2021/04/09 03:33:28;;;;;;;19.95;6.60;;;;;;;;;;3586463;40;20055;-51
2021/04/09 03:35:54;;;;;;;18.70;8.32;;;;;;;;;;3586806;40;20276;-54
2021/04/09 03:38:19;;;;;;;10.75;6.57;;;;;;;;;;3586495;40;20029;-53
2021/04/09 03:40:45;;;;;;;12.48;7.15;;;;;;;;;;3586655;40;20067;-51
2021/04/09 03:43:11;;;;;;;10.05;6.88;;;;;;;;;;3586538;40;20048;-53
2021/04/09 03:45:39;;;;;;;10.85;6.45;;;;;;;;;;3586633;40;20346;-53
2021/04/09 03:48:05;;;;;;;10.52;6.35;;;;;;;;;;3586871;40;20066;-49
2021/04/09 03:50:30;;;;;;;9.60;6.30;;;;;;;;;;3586047;40;20125;-52
2021/04/09 03:52:57;;;;;;;12.93;6.63;;;;;;;;;;3586738;40;20039;-50
2021/04/09 03:55:22;;;;;;;12.50;6.75;;;;;;;;;;3586737;40;20106;-52
2021/04/09 03:57:48;;;;;;;14.60;7.50;;;;;;;;;;3585753;40;20040;-50
2021/04/09 04:00:14;;;;;;;14.15;6.80;;;;;;;;;;3585832;40;20254;-48
2021/04/09 04:02:40;;;;;;;14.68;6.80;;;;;;;;;;3585931;40;20033;-53
2021/04/09 04:05:06;;;;;;;15.90;7.13;;;;;;;;;;3586814;40;20045;-53
2021/04/09 04:07:31;;;;;;;12.48;7.00;;;;;;;;;;3586696;40;20032;-53
2021/04/09 04:09:56;;;;;;;11.35;6.00;;;;;;;;;;3585834;40;20378;-49
2021/04/09 04:12:22;;;;;;;9.65;6.72;;;;;;;;;;3586505;40;20579;-52
2021/04/09 04:14:47;;;;;;;14.00;6.90;;;;;;;;;;3586595;40;20032;-51
2021/04/09 04:17:13;;;;;;;10.43;6.43;;;;;;;;;;3585716;40;20088;-51
2021/04/09 04:19:38;;;;;;;16.48;6.80;;;;;;;;;;3586440;40;20055;-50
2021/04/09 04:22:03;;;;;;;14.35;6.90;;;;;;;;;;3586444;40;20028;-52
2021/04/09 04:24:29;;;;;;;12.65;6.72;;;;;;;;;;3586523;40;20948;-52
2021/04/09 04:26:54;;;;;;;8.00;5.60;;;;;;;;;;3585965;40;20322;-52
2021/04/09 04:29:20;;;;;;;12.70;6.75;;;;;;;;;;3586857;40;20032;-48
2021/04/09 04:31:45;;;;;;;13.65;6.43;;;;;;;;;;3586499;40;20365;-47
2021/04/09 04:34:10;;;;;;;10.38;6.30;;;;;;;;;;3586415;40;20039;-49
2021/04/09 04:36:36;;;;;;;10.35;6.18;;;;;;;;;;3585537;40;20048;-50
2021/04/09 04:39:03;;;;;;;11.90;7.25;;;;;;;;;;3586299;40;20028;-51
2021/04/09 04:41:29;;;;;;;12.38;6.40;;;;;;;;;;3586538;40;20025;-49
2021/04/09 04:43:56;;;;;;;10.00;6.00;;;;;;;;;;3586353;40;20075;-51
2021/04/09 04:46:21;;;;;;;9.50;5.70;;;;;;;;;;3585451;40;20051;-47
2021/04/09 04:48:47;;;;;;;14.23;6.28;;;;;;;;;;3586183;40;20044;-47
2021/04/09 04:51:12;;;;;;;7.90;5.40;;;;;;;;;;3585622;40;20545;-49
2021/04/09 04:53:37;;;;;;;9.38;5.28;;;;;;;;;;3586100;40;20114;-50
2021/04/09 04:56:03;;;;;;;9.48;5.45;;;;;;;;;;3586133;40;20041;-50
2021/04/09 04:58:28;;;;;;;13.40;6.22;;;;;;;;;;3586367;40;20044;-49
2021/04/09 05:00:54;;;;;;;8.52;5.88;;;;;;;;;;3585657;40;20040;-50
2021/04/09 05:03:19;;;;;;;10.35;5.65;;;;;;;;;;3585814;40;20041;-48
2021/04/09 05:05:45;;;;;;;10.15;5.70;;;;;;;;;;3586222;40;20043;-47
2021/04/09 05:08:10;;;;;;;10.05;6.20;;;;;;;;;;3586040;40;20041;-48
2021/04/09 05:10:36;;;;;;;11.77;6.47;;;;;;;;;;3585529;40;20040;-53
2021/04/09 05:13:01;;;;;;;12.20;6.15;;;;;;;;;;3586041;40;20068;-50
2021/04/09 05:15:27;;;;;;;10.40;6.43;;;;;;;;;;3585995;40;20053;-49
2021/04/09 05:17:52;;;;;;;14.90;6.63;;;;;;;;;;3585524;40;20864;-46
2021/04/09 05:20:17;;;;;;;11.63;6.88;;;;;;;;;;3584635;40;20364;-47
2021/04/09 05:22:43;;;;;;;15.18;6.30;;;;;;;;;;3587215;40;20084;-47
2021/04/09 05:25:08;;;;;;;14.35;6.95;;;;;;;;;;3587562;40;20029;-48
2021/04/09 05:27:34;;;;;;;9.48;6.55;;;;;;;;;;3587135;40;20029;-48
2021/04/09 05:30:00;;;;;;;12.73;6.78;;;;;;;;;;3587111;40;20383;-49
2021/04/09 05:32:25;;;;;;;10.32;5.57;;;;;;;;;;3587180;40;20387;-49
2021/04/09 05:34:50;;;;;;;13.00;6.53;;;;;;;;;;3587581;40;20675;-49
2021/04/09 05:37:16;;;;;;;9.48;6.15;;;;;;;;;;3586741;40;20042;-49
2021/04/09 05:39:41;;;;;;;11.10;5.75;;;;;;;;;;3587687;40;20028;-52
2021/04/09 05:42:07;;;;;;;11.20;6.03;;;;;;;;;;3587308;40;20047;-51
2021/04/09 05:44:34;;;;;;;11.07;6.40;;;;;;;;;;3587213;40;20049;-48
2021/04/09 05:47:04;;;;;;;12.48;6.35;;;;;;;;;;3585604;40;20285;-52
2021/04/09 05:49:30;;;;;;;8.98;6.25;;;;;;;;;;3587048;40;20041;-49
2021/04/09 05:51:56;;;;;;;11.20;7.28;;;;;;;;;;3587499;40;20036;-49
2021/04/09 05:54:22;;;;;;;8.98;5.60;;;;;;;;;;3586711;40;20044;-49
2021/04/09 05:56:47;;;;;;;12.45;7.50;;;;;;;;;;3587595;40;20278;-50
2021/04/09 05:59:13;;;;;;;19.20;8.43;;;;;;;;;;3586835;40;20106;-50
2021/04/09 06:01:38;;;;;;;11.77;7.85;;;;;;;;;;3586584;40;20076;-50
2021/04/09 06:04:04;;;;;;;11.73;8.48;;;;;;;;;;3586535;40;20031;-50
2021/04/09 06:06:29;;;;;;;14.07;7.32;;;;;;;;;;3586027;40;20025;-48
2021/04/09 06:08:54;;;;;;;14.98;8.13;;;;;;;;;;3586011;40;20047;-51
2021/04/09 06:11:20;;;;;;;15.52;7.03;;;;;;;;;;3585903;40;20032;-51
2021/04/09 06:13:45;;;;;;;15.18;8.02;;;;;;;;;;3586593;40;20032;-51
2021/04/09 06:16:10;;;;;;;16.33;7.75;;;;;;;;;;3586537;40;20033;-49
2021/04/09 06:18:36;;;;;;;17.00;7.15;;;;;;;;;;3586274;40;20044;-49
2021/04/09 06:21:02;;;;;;;17.13;7.72;;;;;;;;;;3587579;40;20256;-51
2021/04/09 06:23:27;;;;;;;11.35;7.13;;;;;;;;;;3587077;40;20044;-48
2021/04/09 06:25:52;;;;;;;28.45;9.10;;;;;;;;;;3584131;40;20045;-49
2021/04/09 06:28:18;;;;;;;16.35;7.97;;;;;;;;;;3586213;40;20064;-51
2021/04/09 06:30:43;;;;;;;14.98;8.88;;;;;;;;;;3586871;40;20033;-48
2021/04/09 06:33:09;;;;;;;16.90;7.50;;;;;;;;;;3587010;40;20086;-53
2021/04/09 06:35:34;;;;;;;13.95;7.78;;;;;;;;;;3585525;40;20025;-52
2021/04/09 06:38:00;;;;;;;18.02;7.85;;;;;;;;;;3586717;40;20281;-48
2021/04/09 06:40:26;;;;;;;10.95;7.25;;;;;;;;;;3587006;40;20294;-51
2021/04/09 06:42:55;;;;;;;12.02;7.57;;;;;;;;;;3586253;40;20378;-51
2021/04/09 06:45:22;;;;;;;14.85;8.00;;;;;;;;;;3586673;40;20048;-50
2021/04/09 06:47:47;;;;;;;13.77;7.78;;;;;;;;;;3585731;40;20536;-51
2021/04/09 06:50:13;;;;;;;12.73;7.40;;;;;;;;;;3585793;40;20025;-49
2021/04/09 06:52:39;;;;;;;14.02;8.30;;;;;;;;;;3585850;40;20264;-49
2021/04/09 06:55:06;;;;;;;12.77;8.02;;;;;;;;;;3586591;40;20031;-48
2021/04/09 06:57:34;;;;;;;13.55;7.72;;;;;;;;;;3585988;40;20041;-49
2021/04/09 07:00:05;;;;;;;12.55;8.43;;;;;;;;;;3586457;40;20092;-50
2021/04/09 07:02:31;;;;;;;10.15;6.70;;;;;;;;;;3586151;40;20039;-51
2021/04/09 07:04:56;;;;;;;13.98;7.90;;;;;;;;;;3586995;40;20044;-49
2021/04/09 07:07:22;;;;;;;12.27;8.13;;;;;;;;;;3586404;40;20052;-51
2021/04/09 07:09:47;;;;;;;11.75;8.30;;;;;;;;;;3586133;40;20045;-50
2021/04/09 07:12:24;;;;;;;11.55;7.55;;;;;;;;;;3586900;40;20263;-55
2021/04/09 07:15:00;;;;;;;13.50;7.38;;;;;;;;;;3586123;40;20040;-53
2021/04/09 07:17:44;;;;;;;12.75;7.72;;;;;;;;;;3586342;40;20122;-54
2021/04/09 07:20:18;;;;;;;15.75;7.93;;;;;;;;;;3586778;40;20461;-54
2021/04/09 07:22:48;;;;;;;18.42;7.78;;;;;;;;;;3586731;40;20029;-53
2021/04/09 07:25:18;;;;;;;15.95;8.20;;;;;;;;;;3586786;40;20037;-53
2021/04/09 07:27:46;;;;;;;11.05;7.97;;;;;;;;;;3585195;40;20036;-51
2021/04/09 07:30:25;;;;;;;15.40;7.55;;;;;;;;;;3585325;40;20060;-52
2021/04/09 07:32:51;;;;;;;10.02;6.72;;;;;;;;;;3587039;40;20044;-52
2021/04/09 07:35:16;;;;;;;14.73;8.00;;;;;;;;;;3586008;40;20033;-51
2021/04/09 07:37:55;;;;;;;15.93;7.75;;;;;;;;;;3586659;40;20029;-50
2021/04/09 07:40:31;;;;;;;16.80;8.73;;;;;;;;;;3586445;40;20033;-54
2021/04/09 07:42:58;;;;;;;15.27;8.65;;;;;;;;;;3586748;40;20036;-52
2021/04/09 07:45:27;;;;;;;13.13;7.68;;;;;;;;;;3585971;40;20414;-51
2021/04/09 07:47:54;;;;;;;16.65;8.38;;;;;;;;;;3586356;40;20052;-54
2021/04/09 07:50:30;;;;;;;11.95;8.05;;;;;;;;;;3586466;40;20134;-53
2021/04/09 07:52:55;;;;;;;12.68;7.43;;;;;;;;;;3585605;40;20456;-53
2021/04/09 07:55:22;;;;;;;14.77;7.57;;;;;;;;;;3586743;40;20056;-52
2021/04/09 07:57:49;;;;;;;20.88;8.48;;;;;;;;;;3586644;40;20061;-54
2021/04/09 08:00:19;;;;;;;12.10;8.02;;;;;;;;;;3586124;40;20033;-53
2021/04/09 08:02:45;;;;;;;17.27;8.73;;;;;;;;;;3586782;40;20056;-54
2021/04/09 08:05:16;;;;;;;10.52;8.63;;;;;;;;;;3586603;40;20043;-52
2021/04/09 08:07:42;;;;;;;;;;;;;;;;;;3587406;40;20044;-51
2021/04/09 08:10:10;;;;;;;10.35;7.80;;;;;;;;;;3585826;40;19936;-53
2021/04/09 08:12:36;;;;;;;12.32;8.13;;;;;;;;;;3586351;40;20084;-54
2021/04/09 08:15:16;;;;;;;15.05;8.50;;;;;;;;;;3585340;40;20040;-54
2021/04/09 08:17:43;;;;;;;12.27;7.43;;;;;;;;;;3584873;40;20070;-54
2021/04/09 08:20:15;;;;;;;12.63;7.80;;;;;;;;;;3584158;40;20056;-54
2021/04/09 08:22:41;;;;;;;14.95;8.30;;;;;;;;;;3585975;40;20076;-52
2021/04/09 08:25:09;;;;;;;12.82;7.80;;;;;;;;;;3586555;40;20052;-53
2021/04/09 08:27:35;;;;;;;15.93;8.20;;;;;;;;;;3586219;40;20077;-52
2021/04/09 08:30:01;;;;;;;14.25;7.05;;;;;;;;;;3586049;40;20544;-55
2021/04/09 08:32:27;;;;;;;15.23;8.20;;;;;;;;;;3581722;40;20048;-52
2021/04/09 08:34:54;;;;;;;10.35;7.28;;;;;;;;;;3585582;40;20028;-50
2021/04/09 08:37:20;;;;;;;12.50;7.60;;;;;;;;;;3585142;40;20041;-55
2021/04/09 08:39:46;;;;;;;13.07;8.23;;;;;;;;;;3582841;40;20049;-54
2021/04/09 08:42:11;;;;;;;12.02;8.05;;;;;;;;;;3584511;40;20028;-52
2021/04/09 08:44:37;;;;;;;11.38;7.70;;;;;;;;;;3585801;40;20369;-53
2021/04/09 08:47:02;;;;;;;12.93;7.85;;;;;;;;;;3585123;40;20044;-52
2021/04/09 08:49:29;;;;;;;11.45;7.65;;;;;;;;;;3585173;40;20437;-49
2021/04/09 08:51:59;;;;;;;11.75;7.45;;;;;;;;;;3585841;40;20067;-52
2021/04/09 08:54:30;;;;;;;11.55;7.72;;;;;;;;;;3585807;40;20133;-51
2021/04/09 08:56:57;;;;;;;16.75;8.60;;;;;;;;;;3584626;40;20036;-52
2021/04/09 08:59:37;;;;;;;17.23;7.45;;;;;;;;;;3587487;40;20040;-51
2021/04/09 09:02:15;;;;;;;11.90;7.25;;;;;;;;;;3586841;40;20036;-53
2021/04/09 09:04:56;;;;;;;10.65;6.70;;;;;;;;;;3585718;40;20190;-53
2021/04/09 09:07:43;;;;;;;11.18;7.10;;;;;;;;;;3586598;40;20162;-53
2021/04/09 09:10:30;;;;;;;13.48;7.55;;;;;;;;;;3587558;40;20466;-52
2021/04/09 09:13:05;;;;;;;13.25;7.75;;;;;;;;;;3586413;40;20094;-52
2021/04/09 09:15:42;;;;;;;9.65;7.50;;;;;;;;;;3584852;40;20040;-54
2021/04/09 09:18:27;;;;;;;13.57;7.50;;;;;;;;;;3586366;40;20052;-54
2021/04/09 09:21:05;;;;;;;12.63;7.03;;;;;;;;;;3585015;40;20048;-50
2021/04/09 09:24:01;;;;;;;12.63;7.28;;;;;;;;;;3586361;40;20056;-49
2021/04/09 09:26:39;;;;;;;12.70;7.13;;;;;;;;;;3586283;40;20033;-54
2021/04/09 09:29:28;;;;;;;12.25;7.00;;;;;;;;;;3587006;40;20339;-52
2021/04/09 09:31:56;;;;;;;12.27;7.07;;;;;;;;;;3586080;40;20052;-54
2021/04/09 09:34:21;;;;;;;11.85;7.22;;;;;;;;;;3586653;40;20036;-50
2021/04/09 09:37:15;;;;;;;11.32;7.22;;;;;;;;;;3586985;40;20506;-48
2021/04/09 09:39:49;;;;;;;8.48;5.63;;;;;;;;;;3587130;40;20286;-50
2021/04/09 09:42:14;;;;;;;13.98;6.22;;;;;;;;;;3587245;40;20035;-50
2021/04/09 09:44:40;;;;;;;17.17;5.50;;;;;;;;;;3587772;40;20041;-50
2021/04/09 09:47:16;;;;;;;10.70;6.38;;;;;;;;;;3586994;40;20592;-52
2021/04/09 09:50:10;;;;;;;11.05;6.38;;;;;;;;;;3586419;40;20060;-53
2021/04/09 09:52:45;;;;;;;8.35;5.40;;;;;;;;;;3586814;40;20167;-53
2021/04/09 09:55:35;;;;;;;8.73;6.00;;;;;;;;;;3587154;40;20039;-50
2021/04/09 09:58:00;;;;;;;10.10;5.97;;;;;;;;;;3586492;40;20037;-55
2021/04/09 10:00:33;;;;;;;9.48;6.15;;;;;;;;;;3586866;40;20037;-55
2021/04/09 10:03:12;;;;;;;16.00;5.25;;;;;;;;;;3587107;40;20417;-55
2021/04/09 10:05:39;;;;;;;8.38;5.60;;;;;;;;;;3586089;40;20047;-52
2021/04/09 10:08:05;;;;;;;12.45;6.38;;;;;;;;;;3585739;40;20044;-52
2021/04/09 10:10:36;;;;;;;9.48;5.20;;;;;;;;;;3587044;40;20137;-51
2021/04/09 10:13:25;;;;;;;11.07;5.78;;;;;;;;;;3584454;40;20032;-51
2021/04/09 10:16:06;;;;;;;10.98;5.80;;;;;;;;;;3586644;40;20050;-52
2021/04/09 10:18:31;;;;;;;7.28;5.30;;;;;;;;;;3586310;40;20121;-52
2021/04/09 10:21:16;;;;;;;9.15;5.22;;;;;;;;;;3587464;40;20029;-49
2021/04/09 10:23:43;;;;;;;10.98;5.75;;;;;;;;;;3584277;40;20037;-49
2021/04/09 10:26:09;;;;;;;13.52;6.25;;;;;;;;;;3586672;40;20053;-52
2021/04/09 10:28:36;;;;;;;17.40;6.13;;;;;;;;;;3586085;40;20433;-54
2021/04/09 10:31:16;;;;;;;12.68;5.95;;;;;;;;;;3584201;40;20048;-51
2021/04/09 10:33:46;;;;;;;10.40;5.47;;;;;;;;;;3586578;40;20029;-53
2021/04/09 10:36:21;;;;;;;10.57;5.97;;;;;;;;;;3586978;40;20033;-53
2021/04/09 10:38:48;;;;;;;17.38;6.65;;;;;;;;;;3586425;40;20267;-52
2021/04/09 10:41:29;;;;;;;8.75;5.88;;;;;;;;;;3586573;40;20032;-51
2021/04/09 10:44:00;;;;;;;9.77;5.20;;;;;;;;;;3586707;40;20040;-49
2021/04/09 10:46:27;;;;;;;11.95;6.35;;;;;;;;;;3586114;40;20068;-49
2021/04/09 10:49:07;;;;;;;9.88;6.20;;;;;;;;;;3586953;40;20032;-53
2021/04/09 10:51:35;;;;;;;15.85;5.78;;;;;;;;;;3586479;40;20037;-54
2021/04/09 10:54:02;;;;;;;11.73;6.70;;;;;;;;;;3586937;40;20036;-51
2021/04/09 10:56:28;;;;;;;18.17;6.28;;;;;;;;;;3585588;40;20059;-48
2021/04/09 10:58:53;;;;;;;9.73;5.93;;;;;;;;;;3585143;40;20053;-49
2021/04/09 11:01:27;;;;;;;10.00;4.95;;;;;;;;;;3584803;40;20036;-52
2021/04/09 11:03:53;;;;;;;13.25;6.13;;;;;;;;;;3586035;40;20060;-51
2021/04/09 11:06:21;;;;;;;10.20;5.20;;;;;;;;;;3586676;40;20040;-51
2021/04/09 11:08:55;;;;;;;9.02;4.63;;;;;;;;;;3586397;40;20249;-52
2021/04/09 11:11:28;;;;;;;7.93;5.00;;;;;;;;;;3586419;40;20032;-53
2021/04/09 11:14:02;;;;;;;10.73;4.93;;;;;;;;;;3586317;40;20024;-51
2021/04/09 11:16:28;;;;;;;16.35;5.32;;;;;;;;;;3586000;40;20178;-54
2021/04/09 11:18:56;;;;;;;8.27;4.90;;;;;;;;;;3586603;40;20429;-52
2021/04/09 11:21:47;;;;;;;10.50;5.65;;;;;;;;;;3586439;40;20044;-53
2021/04/09 11:24:29;;;;;;;14.65;5.72;;;;;;;;;;3585404;40;20033;-49
2021/04/09 11:26:55;;;;;;;10.98;5.53;;;;;;;;;;3585941;40;20040;-51
2021/04/09 11:29:28;;;;;;;11.23;5.90;;;;;;;;;;3586912;40;20021;-53
2021/04/09 11:32:10;;;;;;;7.38;5.20;;;;;;;;;;3586231;40;20020;-52
2021/04/09 11:34:37;;;;;;;9.57;5.32;;;;;;;;;;3586173;40;20029;-55
2021/04/09 11:37:03;;;;;;;14.10;5.63;;;;;;;;;;3586160;40;20290;-52
2021/04/09 11:39:29;;;;;;;9.55;4.95;;;;;;;;;;3586269;40;20154;-51
2021/04/09 11:42:04;;;;;;;9.05;4.97;;;;;;;;;;3586872;40;20273;-55
2021/04/09 11:44:39;;;;;;;11.23;4.97;;;;;;;;;;3585719;40;20056;-55
2021/04/09 11:47:27;;;;;;;10.85;5.25;;;;;;;;;;3586125;40;20044;-53
2021/04/09 11:50:23;;;;;;;8.25;5.05;;;;;;;;;;3586661;40;20045;-52
2021/04/09 11:52:52;;;;;;;9.48;5.38;;;;;;;;;;3584670;40;20041;-53
2021/04/09 11:55:21;;;;;;;8.55;4.40;;;;;;;;;;3585908;40;20064;-55
2021/04/09 11:57:47;;;;;;;7.28;4.60;;;;;;;;;;3585619;40;20044;-54
2021/04/09 12:00:25;;;;;;;7.03;5.18;;;;;;;;;;3586509;40;20032;-51
2021/04/09 12:02:53;;;;;;;16.58;6.20;;;;;;;;;;3585317;40;20029;-55
2021/04/09 12:05:20;;;;;;;9.45;5.15;;;;;;;;;;3586125;40;20295;-53
2021/04/09 12:07:46;;;;;;;9.27;5.00;;;;;;;;;;3585662;40;20059;-52
2021/04/09 12:10:12;;;;;;;10.30;5.15;;;;;;;;;;3584822;40;20052;-53
2021/04/09 12:12:37;;;;;;;13.55;5.57;;;;;;;;;;3586022;40;20028;-54
2021/04/09 12:15:03;;;;;;;8.32;5.43;;;;;;;;;;3586544;40;20142;-53
2021/04/09 12:17:28;;;;;;;11.30;5.95;;;;;;;;;;3586617;40;20044;-53
2021/04/09 12:19:55;;;;;;;10.57;6.03;;;;;;;;;;3585853;40;20036;-52
2021/04/09 12:22:20;;;;;;;9.00;5.28;;;;;;;;;;3585856;40;20041;-53
2021/04/09 12:24:46;;;;;;;8.93;4.15;;;;;;;;;;3586050;40;20110;-50
2021/04/09 12:27:12;;;;;;;12.45;5.72;;;;;;;;;;3586226;40;20066;-53
2021/04/09 12:29:38;;;;;;;12.65;6.18;;;;;;;;;;3585954;40;20273;-53
2021/04/09 12:32:05;;;;;;;8.02;4.80;;;;;;;;;;3586738;40;20264;-54
2021/04/09 12:34:30;;;;;;;9.73;5.40;;;;;;;;;;3586789;40;20041;-51
2021/04/09 12:36:56;;;;;;;13.60;5.82;;;;;;;;;;3585762;40;20110;-53
2021/04/09 12:39:22;;;;;;;9.02;5.35;;;;;;;;;;3586229;40;20048;-49
2021/04/09 12:41:48;;;;;;;8.02;4.88;;;;;;;;;;3586314;40;20061;-52
2021/04/09 12:44:15;;;;;;;12.77;5.57;;;;;;;;;;3585217;40;20055;-53
2021/04/09 12:46:42;;;;;;;8.30;5.47;;;;;;;;;;3585547;40;20527;-53
2021/04/09 12:49:07;;;;;;;11.20;5.68;;;;;;;;;;3586534;40;20275;-53
2021/04/09 12:51:33;;;;;;;15.10;5.80;;;;;;;;;;3585692;40;20033;-51
2021/04/09 12:53:59;;;;;;;7.60;5.03;;;;;;;;;;3584824;40;20071;-53
2021/04/09 12:56:24;;;;;;;11.07;5.30;;;;;;;;;;3585483;40;20040;-53
2021/04/09 12:58:50;;;;;;;8.68;6.20;;;;;;;;;;3585899;40;20346;-53
2021/04/09 13:01:16;;;;;;;11.15;5.85;;;;;;;;;;3585914;40;20406;-54
2021/04/09 13:03:42;;;;;;;11.40;7.05;;;;;;;;;;3585693;40;20029;-53
2021/04/09 13:06:08;;;;;;;10.07;5.88;;;;;;;;;;3586132;40;20032;-54
2021/04/09 13:08:35;;;;;;;11.27;5.88;;;;;;;;;;3586150;40;20121;-53
2021/04/09 13:11:01;;;;;;;12.77;6.88;;;;;;;;;;3585072;40;20260;-52
2021/04/09 13:13:27;;;;;;;13.82;5.90;;;;;;;;;;3586071;40;20037;-48
2021/04/09 13:15:54;;;;;;;8.10;5.70;;;;;;;;;;3584429;40;20032;-52
2021/04/09 13:18:19;;;;;;;9.70;5.65;;;;;;;;;;3585478;40;20090;-53
2021/04/09 13:20:45;;;;;;;8.63;5.40;;;;;;;;;;3585802;40;20040;-50
2021/04/09 13:23:10;;;;;;;8.05;5.65;;;;;;;;;;3586212;40;20092;-53
2021/04/09 13:25:36;;;;;;;9.32;5.95;;;;;;;;;;3585647;40;20028;-54
2021/04/09 13:28:01;;;;;;;9.38;5.18;;;;;;;;;;3585341;40;20118;-49
2021/04/09 13:30:26;;;;;;;11.32;5.20;;;;;;;;;;3585914;40;20037;-52
2021/04/09 13:32:52;;;;;;;8.77;5.68;;;;;;;;;;3585841;40;20090;-54
2021/04/09 13:35:17;;;;;;;9.48;5.95;;;;;;;;;;3586490;40;20040;-53
2021/04/09 13:37:43;;;;;;;11.20;6.40;;;;;;;;;;3585400;40;20398;-53
2021/04/09 13:40:09;;;;;;;7.78;5.03;;;;;;;;;;3585870;40;20095;-54
2021/04/09 13:42:34;;;;;;;10.85;5.60;;;;;;;;;;3586186;40;20406;-54
2021/04/09 13:45:00;;;;;;;14.13;5.22;;;;;;;;;;3587413;40;20044;-52
2021/04/09 13:47:25;;;;;;;10.00;5.45;;;;;;;;;;3587726;40;20334;-51
2021/04/09 13:49:51;;;;;;;12.15;5.78;;;;;;;;;;3587703;40;20357;-54
2021/04/09 13:52:16;;;;;;;7.82;5.07;;;;;;;;;;3587664;40;20048;-52
2021/04/09 13:54:41;;;;;;;6.40;4.43;;;;;;;;;;3586823;40;20299;-53
2021/04/09 13:57:07;;;;;;;5.70;3.85;;;;;;;;;;3587147;40;20252;-53
2021/04/09 13:59:32;;;;;;;6.32;4.25;;;;;;;;;;3587582;40;20064;-54
2021/04/09 14:01:58;;;;;;;7.85;4.47;;;;;;;;;;3586945;40;20379;-53
2021/04/09 14:04:24;;;;;;;5.80;4.25;;;;;;;;;;3587487;40;20044;-52
2021/04/09 14:06:49;;;;;;;6.03;4.03;;;;;;;;;;3586597;40;20046;-53
2021/04/09 14:09:15;;;;;;;10.18;4.53;;;;;;;;;;3587385;40;20490;-54
2021/04/09 14:11:40;;;;;;;11.32;4.57;;;;;;;;;;3586409;40;20097;-51
2021/04/09 14:14:06;;;;;;;6.63;3.90;;;;;;;;;;3587642;40;20029;-52
2021/04/09 14:16:32;;;;;;;11.30;3.85;;;;;;;;;;3586163;40;20044;-51
2021/04/09 14:18:57;;;;;;;8.65;5.00;;;;;;;;;;3587357;40;20072;-54
2021/04/09 14:21:23;;;;;;;7.53;4.20;;;;;;;;;;3586163;40;20045;-52
2021/04/09 14:23:48;;;;;;;9.55;4.38;;;;;;;;;;3587344;40;20029;-50
2021/04/09 14:26:14;;;;;;;6.00;3.80;;;;;;;;;;3587388;40;20041;-54
2021/04/09 14:28:39;;;;;;;5.53;3.80;;;;;;;;;;3586632;40;20392;-48
2021/04/09 14:31:04;;;;;;;6.95;4.30;;;;;;;;;;3587335;40;20037;-52
2021/04/09 14:33:30;;;;;;;6.10;3.92;;;;;;;;;;3587275;40;20288;-53
2021/04/09 14:35:55;;;;;;;7.47;4.43;;;;;;;;;;3587482;40;20029;-49
2021/04/09 14:38:23;;;;;;;10.88;4.63;;;;;;;;;;3586650;40;20307;-51
2021/04/09 14:40:49;;;;;;;9.25;4.13;;;;;;;;;;3586890;40;20036;-54